sensor_id;sensor_type;location;lat;lon;timestamp;pressure;altitude;pressure_sealevel;temperature;humidity
15932;BME280;8065;49.520;11.284;2023-02-13T00:01:03;99528.34;;;6.82;79.84
15932;BME280;8065;49.520;11.284;2023-02-13T00:03:29;99527.13;;;6.90;79.37
15932;BME280;8065;49.520;11.284;2023-02-13T00:05:56;99533.06;;;6.47;79.76
15932;BME280;8065;49.520;11.284;2023-02-13T00:08:22;99526.00;;;6.36;81.12
15932;BME280;8065;49.520;11.284;2023-02-13T00:10:49;99519.63;;;6.32;81.16
15932;BME280;8065;49.520;11.284;2023-02-13T00:13:17;99522.50;;;6.30;81.63
15932;BME280;8065;49.520;11.284;2023-02-13T00:15:43;99516.72;;;6.16;80.35
15932;BME280;8065;49.520;11.284;2023-02-13T00:18:09;99528.69;;;6.07;80.43
15932;BME280;8065;49.520;11.284;2023-02-13T00:20:36;99518.41;;;6.06;80.73
15932;BME280;8065;49.520;11.284;2023-02-13T00:23:02;99521.00;;;5.89;81.27
15932;BME280;8065;49.520;11.284;2023-02-13T00:25:29;99529.19;;;6.04;80.38
15932;BME280;8065;49.520;11.284;2023-02-13T00:27:55;99520.88;;;6.12;80.89
15932;BME280;8065;49.520;11.284;2023-02-13T00:30:23;99516.72;;;6.16;80.98
15932;BME280;8065;49.520;11.284;2023-02-13T00:32:50;99518.22;;;6.12;81.38
15932;BME280;8065;49.520;11.284;2023-02-13T00:35:17;99526.63;;;6.09;81.24
15932;BME280;8065;49.520;11.284;2023-02-13T00:37:43;99522.56;;;6.18;80.94
15932;BME280;8065;49.520;11.284;2023-02-13T00:40:11;99525.03;;;6.25;81.04
15932;BME280;8065;49.520;11.284;2023-02-13T00:42:37;99523.28;;;6.14;81.56
15932;BME280;8065;49.520;11.284;2023-02-13T00:45:04;99530.47;;;6.18;81.30
15932;BME280;8065;49.520;11.284;2023-02-13T00:47:32;99526.50;;;6.33;80.63
15932;BME280;8065;49.520;11.284;2023-02-13T00:49:58;99523.94;;;6.38;80.21
15932;BME280;8065;49.520;11.284;2023-02-13T00:52:25;99521.69;;;6.30;80.51
15932;BME280;8065;49.520;11.284;2023-02-13T00:54:51;99527.59;;;6.20;81.16
15932;BME280;8065;49.520;11.284;2023-02-13T00:57:17;99519.63;;;6.32;80.55
15932;BME280;8065;49.520;11.284;2023-02-13T00:59:44;99523.28;;;6.31;80.75
15932;BME280;8065;49.520;11.284;2023-02-13T01:02:10;99521.69;;;6.30;81.03
15932;BME280;8065;49.520;11.284;2023-02-13T01:04:38;99519.38;;;6.33;80.75
15932;BME280;8065;49.520;11.284;2023-02-13T01:07:04;99525.47;;;6.34;81.06
15932;BME280;8065;49.520;11.284;2023-02-13T01:09:31;99519.47;;;6.38;80.62
15932;BME280;8065;49.520;11.284;2023-02-13T01:11:58;99524.50;;;6.40;80.63
15932;BME280;8065;49.520;11.284;2023-02-13T01:14:24;99516.56;;;6.40;80.88
15932;BME280;8065;49.520;11.284;2023-02-13T01:16:51;99517.84;;;6.37;80.82
15932;BME280;8065;49.520;11.284;2023-02-13T01:19:17;99518.66;;;6.38;81.06
15932;BME280;8065;49.520;11.284;2023-02-13T01:21:45;99522.34;;;6.37;80.36
15932;BME280;8065;49.520;11.284;2023-02-13T01:24:11;99519.06;;;6.30;80.62
15932;BME280;8065;49.520;11.284;2023-02-13T01:26:38;99520.72;;;6.19;80.23
15932;BME280;8065;49.520;11.284;2023-02-13T01:29:05;99526.31;;;6.06;81.15
15932;BME280;8065;49.520;11.284;2023-02-13T01:31:32;99524.88;;;5.98;81.60
15932;BME280;8065;49.520;11.284;2023-02-13T01:33:58;99518.47;;;5.94;81.97
15932;BME280;8065;49.520;11.284;2023-02-13T01:36:25;99522.41;;;5.80;82.16
15932;BME280;8065;49.520;11.284;2023-02-13T01:38:55;99529.44;;;5.63;82.92
15932;BME280;8065;49.520;11.284;2023-02-13T01:41:23;99524.94;;;5.75;83.08
15932;BME280;8065;49.520;11.284;2023-02-13T01:43:52;99518.19;;;5.67;82.29
15932;BME280;8065;49.520;11.284;2023-02-13T01:46:23;99519.41;;;5.48;83.23
15932;BME280;8065;49.520;11.284;2023-02-13T01:48:53;99516.53;;;5.49;82.97
15932;BME280;8065;49.520;11.284;2023-02-13T01:51:24;99514.97;;;5.37;82.78
15932;BME280;8065;49.520;11.284;2023-02-13T01:53:57;99517.59;;;5.37;82.96
15932;BME280;8065;49.520;11.284;2023-02-13T01:56:29;99519.13;;;5.21;83.46
15932;BME280;8065;49.520;11.284;2023-02-13T01:58:59;99517.50;;;5.32;81.84
15932;BME280;8065;49.520;11.284;2023-02-13T02:01:27;99517.25;;;5.33;82.06
15932;BME280;8065;49.520;11.284;2023-02-13T02:03:56;99515.31;;;5.28;82.31
15932;BME280;8065;49.520;11.284;2023-02-13T02:06:26;99508.25;;;5.17;82.89
15932;BME280;8065;49.520;11.284;2023-02-13T02:08:56;99513.84;;;5.21;82.43
15932;BME280;8065;49.520;11.284;2023-02-13T02:11:31;99506.66;;;5.16;82.64
15932;BME280;8065;49.520;11.284;2023-02-13T02:14:01;99511.50;;;5.08;82.56
15932;BME280;8065;49.520;11.284;2023-02-13T02:16:28;99507.25;;;5.07;82.44
15932;BME280;8065;49.520;11.284;2023-02-13T02:18:56;99502.56;;;5.09;83.16
15932;BME280;8065;49.520;11.284;2023-02-13T02:21:37;99500.28;;;5.01;83.21
15932;BME280;8065;49.520;11.284;2023-02-13T02:27:39;99506.56;;;5.00;82.74
15932;BME280;8065;49.520;11.284;2023-02-13T02:30:25;99508.28;;;5.06;82.42
15932;BME280;8065;49.520;11.284;2023-02-13T02:32:59;99503.59;;;5.08;82.33
15932;BME280;8065;49.520;11.284;2023-02-13T02:35:35;99511.03;;;5.11;82.31
15932;BME280;8065;49.520;11.284;2023-02-13T02:38:22;99502.91;;;4.77;83.61
15932;BME280;8065;49.520;11.284;2023-02-13T02:40:58;99508.84;;;4.49;84.60
15932;BME280;8065;49.520;11.284;2023-02-13T02:43:37;99507.84;;;4.62;84.52
15932;BME280;8065;49.520;11.284;2023-02-13T02:46:11;99506.78;;;4.51;84.97
15932;BME280;8065;49.520;11.284;2023-02-13T02:48:47;99506.56;;;4.53;83.95
15932;BME280;8065;49.520;11.284;2023-02-13T02:51:39;99507.91;;;4.20;85.00
15932;BME280;8065;49.520;11.284;2023-02-13T02:54:10;99502.97;;;4.12;86.13
15932;BME280;8065;49.520;11.284;2023-02-13T02:56:56;99498.66;;;4.18;85.35
15932;BME280;8065;49.520;11.284;2023-02-13T02:59:27;99499.56;;;4.35;85.77
15932;BME280;8065;49.520;11.284;2023-02-13T03:02:13;99494.44;;;4.28;84.45
15932;BME280;8065;49.520;11.284;2023-02-13T03:05:00;99494.88;;;4.25;86.14
15932;BME280;8065;49.520;11.284;2023-02-13T03:07:44;99494.78;;;4.55;84.33
15932;BME280;8065;49.520;11.284;2023-02-13T03:10:14;99503.25;;;4.69;84.13
15932;BME280;8065;49.520;11.284;2023-02-13T03:13:04;99506.34;;;4.66;83.82
15932;BME280;8065;49.520;11.284;2023-02-13T03:15:49;99514.09;;;4.38;84.34
15932;BME280;8065;49.520;11.284;2023-02-13T03:18:41;99505.63;;;4.36;84.33
15932;BME280;8065;49.520;11.284;2023-02-13T03:21:35;99500.94;;;4.38;85.69
15932;BME280;8065;49.520;11.284;2023-02-13T03:24:24;99502.66;;;4.20;86.65
15932;BME280;8065;49.520;11.284;2023-02-13T03:26:57;99506.31;;;4.19;86.88
15932;BME280;8065;49.520;11.284;2023-02-13T03:29:34;99506.31;;;4.19;87.67
15932;BME280;8065;49.520;11.284;2023-02-13T03:32:25;99506.56;;;4.53;86.57
15932;BME280;8065;49.520;11.284;2023-02-13T03:35:01;99503.38;;;4.74;85.23
15932;BME280;8065;49.520;11.284;2023-02-13T03:37:53;99511.84;;;4.88;84.75
15932;BME280;8065;49.520;11.284;2023-02-13T03:40:26;99504.97;;;4.99;84.27
15932;BME280;8065;49.520;11.284;2023-02-13T03:42:58;99508.88;;;4.84;84.86
15932;BME280;8065;49.520;11.284;2023-02-13T03:45:30;99508.53;;;4.92;83.94
15932;BME280;8065;49.520;11.284;2023-02-13T03:48:25;99510.59;;;4.79;83.94
15932;BME280;8065;49.520;11.284;2023-02-13T03:51:12;99508.88;;;4.61;84.91
15932;BME280;8065;49.520;11.284;2023-02-13T03:53:42;99518.25;;;4.69;84.55
15932;BME280;8065;49.520;11.284;2023-02-13T03:56:12;99515.50;;;4.75;84.81
15932;BME280;8065;49.520;11.284;2023-02-13T03:58:57;99513.78;;;4.69;85.70
15932;BME280;8065;49.520;11.284;2023-02-13T04:01:43;99516.88;;;4.66;85.86
15932;BME280;8065;49.520;11.284;2023-02-13T04:04:16;99513.44;;;4.77;85.41
15932;BME280;8065;49.520;11.284;2023-02-13T04:06:48;99518.72;;;4.77;86.39
15932;BME280;8065;49.520;11.284;2023-02-13T04:09:17;99511.63;;;4.89;84.94
15932;BME280;8065;49.520;11.284;2023-02-13T04:11:48;99517.44;;;4.91;85.68
15932;BME280;8065;49.520;11.284;2023-02-13T04:14:20;99522.03;;;4.96;85.18
15932;BME280;8065;49.520;11.284;2023-02-13T04:16:52;99519.38;;;5.08;84.77
15932;BME280;8065;49.520;11.284;2023-02-13T04:19:23;99524.53;;;5.14;84.55
15932;BME280;8065;49.520;11.284;2023-02-13T04:21:54;99518.03;;;4.58;85.21
15932;BME280;8065;49.520;11.284;2023-02-13T04:24:23;99519.16;;;4.51;86.13
15932;BME280;8065;49.520;11.284;2023-02-13T04:26:50;99514.78;;;4.21;88.42
15932;BME280;8065;49.520;11.284;2023-02-13T04:29:17;99512.41;;;4.43;88.29
15932;BME280;8065;49.520;11.284;2023-02-13T04:31:43;99513.66;;;4.64;86.82
15932;BME280;8065;49.520;11.284;2023-02-13T04:34:10;99512.53;;;4.60;85.65
15932;BME280;8065;49.520;11.284;2023-02-13T04:36:36;99505.88;;;4.69;86.79
15932;BME280;8065;49.520;11.284;2023-02-13T04:39:03;99510.25;;;4.75;86.57
15932;BME280;8065;49.520;11.284;2023-02-13T04:41:30;99510.47;;;4.85;85.89
15932;BME280;8065;49.520;11.284;2023-02-13T04:43:57;99499.00;;;4.91;86.06
15932;BME280;8065;49.520;11.284;2023-02-13T04:46:23;99501.09;;;4.89;85.63
15932;BME280;8065;49.520;11.284;2023-02-13T04:48:50;99512.41;;;4.90;85.28
15932;BME280;8065;49.520;11.284;2023-02-13T04:51:16;99510.00;;;4.77;85.17
15932;BME280;8065;49.520;11.284;2023-02-13T04:53:43;99506.00;;;4.74;86.59
15932;BME280;8065;49.520;11.284;2023-02-13T04:56:09;99517.88;;;4.42;86.69
15932;BME280;8065;49.520;11.284;2023-02-13T04:58:37;99509.09;;;4.48;86.80
15932;BME280;8065;49.520;11.284;2023-02-13T05:01:10;99515.41;;;4.70;86.06
15932;BME280;8065;49.520;11.284;2023-02-13T05:03:37;99515.16;;;4.83;85.62
15932;BME280;8065;49.520;11.284;2023-02-13T05:06:04;99517.09;;;4.65;85.34
15932;BME280;8065;49.520;11.284;2023-02-13T05:08:30;99516.53;;;4.86;85.87
15932;BME280;8065;49.520;11.284;2023-02-13T05:10:56;99518.22;;;4.34;87.61
15932;BME280;8065;49.520;11.284;2023-02-13T05:13:23;99511.25;;;4.39;87.34
15932;BME280;8065;49.520;11.284;2023-02-13T05:15:51;99514.34;;;4.48;86.57
15932;BME280;8065;49.520;11.284;2023-02-13T05:18:17;99514.09;;;4.38;86.81
15932;BME280;8065;49.520;11.284;2023-02-13T05:20:44;99513.47;;;4.01;87.80
15932;BME280;8065;49.520;11.284;2023-02-13T05:23:30;99519.94;;;4.28;87.61
15932;BME280;8065;49.520;11.284;2023-02-13T05:25:56;99514.09;;;4.14;88.12
15932;BME280;8065;49.520;11.284;2023-02-13T05:28:23;99519.81;;;4.35;88.50
15932;BME280;8065;49.520;11.284;2023-02-13T05:31:08;99517.09;;;4.53;86.96
15932;BME280;8065;49.520;11.284;2023-02-13T05:33:34;99519.59;;;4.48;86.17
15932;BME280;8065;49.520;11.284;2023-02-13T05:36:01;99526.69;;;4.36;87.36
15932;BME280;8065;49.520;11.284;2023-02-13T05:38:27;99536.41;;;4.35;87.76
15932;BME280;8065;49.520;11.284;2023-02-13T05:40:54;99533.97;;;4.10;87.92
15932;BME280;8065;49.520;11.284;2023-02-13T05:43:20;99534.56;;;4.36;88.10
15932;BME280;8065;49.520;11.284;2023-02-13T05:45:47;99537.44;;;3.92;88.50
15932;BME280;8065;49.520;11.284;2023-02-13T05:48:14;99542.78;;;4.16;88.79
15932;BME280;8065;49.520;11.284;2023-02-13T05:50:41;99539.69;;;4.07;87.49
15932;BME280;8065;49.520;11.284;2023-02-13T05:53:07;99543.28;;;4.36;88.04
15932;BME280;8065;49.520;11.284;2023-02-13T05:55:34;99541.91;;;4.45;87.15
15932;BME280;8065;49.520;11.284;2023-02-13T05:58:00;99539.75;;;4.42;86.30
15932;BME280;8065;49.520;11.284;2023-02-13T06:00:26;99541.81;;;4.28;87.67
15932;BME280;8065;49.520;11.284;2023-02-13T06:02:53;99544.31;;;3.93;88.24
15932;BME280;8065;49.520;11.284;2023-02-13T06:05:21;99548.50;;;4.13;87.89
15932;BME280;8065;49.520;11.284;2023-02-13T06:07:47;99548.84;;;4.16;87.59
15932;BME280;8065;49.520;11.284;2023-02-13T06:10:14;99556.00;;;3.98;89.21
15932;BME280;8065;49.520;11.284;2023-02-13T06:12:41;99562.13;;;3.61;90.08
15932;BME280;8065;49.520;11.284;2023-02-13T06:15:08;99564.66;;;4.16;89.01
15932;BME280;8065;49.520;11.284;2023-02-13T06:17:35;99559.88;;;4.37;87.75
15932;BME280;8065;49.520;11.284;2023-02-13T06:20:01;99560.31;;;4.34;88.25
15932;BME280;8065;49.520;11.284;2023-02-13T06:22:29;99557.00;;;4.38;86.98
15932;BME280;8065;49.520;11.284;2023-02-13T06:24:55;99556.53;;;3.88;87.62
15932;BME280;8065;49.520;11.284;2023-02-13T06:27:22;99565.28;;;4.00;88.99
15932;BME280;8065;49.520;11.284;2023-02-13T06:29:48;99554.81;;;4.23;88.39
15932;BME280;8065;49.520;11.284;2023-02-13T06:32:14;99570.34;;;4.13;88.43
15932;BME280;8065;49.520;11.284;2023-02-13T06:34:41;99561.91;;;4.23;88.23
15932;BME280;8065;49.520;11.284;2023-02-13T06:37:07;99570.34;;;4.13;87.54
15932;BME280;8065;49.520;11.284;2023-02-13T06:39:35;99583.81;;;4.05;87.46
15932;BME280;8065;49.520;11.284;2023-02-13T06:42:02;99581.19;;;4.05;88.51
15932;BME280;8065;49.520;11.284;2023-02-13T06:44:28;99582.78;;;4.06;88.20
15932;BME280;8065;49.520;11.284;2023-02-13T06:46:55;99585.72;;;3.98;88.46
15932;BME280;8065;49.520;11.284;2023-02-13T06:49:21;99583.69;;;4.00;88.03
15932;BME280;8065;49.520;11.284;2023-02-13T06:51:47;99593.25;;;4.24;88.00
15932;BME280;8065;49.520;11.284;2023-02-13T06:54:14;99585.28;;;4.43;86.94
15932;BME280;8065;49.520;11.284;2023-02-13T06:56:42;99590.31;;;4.33;86.92
15932;BME280;8065;49.520;11.284;2023-02-13T06:59:08;99590.66;;;4.36;87.34
15932;BME280;8065;49.520;11.284;2023-02-13T07:01:35;99595.06;;;4.12;87.42
15932;BME280;8065;49.520;11.284;2023-02-13T07:04:01;99589.25;;;4.34;86.90
15932;BME280;8065;49.520;11.284;2023-02-13T07:06:28;99591.13;;;4.45;86.83
15932;BME280;8065;49.520;11.284;2023-02-13T07:08:54;99593.72;;;4.21;87.17
15932;BME280;8065;49.520;11.284;2023-02-13T07:11:22;99590.63;;;4.24;87.32
15932;BME280;8065;49.520;11.284;2023-02-13T07:13:50;99596.13;;;4.35;87.12
15932;BME280;8065;49.520;11.284;2023-02-13T07:16:17;99595.72;;;4.49;86.74
15932;BME280;8065;49.520;11.284;2023-02-13T07:18:44;99592.03;;;4.27;87.18
15932;BME280;8065;49.520;11.284;2023-02-13T07:21:10;99587.59;;;4.51;86.52
15932;BME280;8065;49.520;11.284;2023-02-13T07:23:37;99594.38;;;4.58;86.03
15932;BME280;8065;49.520;11.284;2023-02-13T07:26:04;99592.25;;;4.25;86.83
15932;BME280;8065;49.520;11.284;2023-02-13T07:28:30;99590.22;;;4.09;87.14
15932;BME280;8065;49.520;11.284;2023-02-13T07:31:04;99587.78;;;4.38;86.54
15932;BME280;8065;49.520;11.284;2023-02-13T07:33:30;99599.78;;;4.22;87.53
15932;BME280;8065;49.520;11.284;2023-02-13T07:35:57;99599.47;;;4.42;86.75
15932;BME280;8065;49.520;11.284;2023-02-13T07:38:23;99596.31;;;4.63;87.06
15932;BME280;8065;49.520;11.284;2023-02-13T07:40:50;99599.06;;;4.68;86.54
15932;BME280;8065;49.520;11.284;2023-02-13T07:43:16;99605.63;;;4.36;86.49
15932;BME280;8065;49.520;11.284;2023-02-13T07:45:43;99600.88;;;4.56;87.35
15932;BME280;8065;49.520;11.284;2023-02-13T07:48:12;99599.88;;;4.69;86.32
15932;BME280;8065;49.520;11.284;2023-02-13T07:50:38;99599.53;;;4.65;85.64
15932;BME280;8065;49.520;11.284;2023-02-13T07:53:05;99602.75;;;4.67;86.09
15932;BME280;8065;49.520;11.284;2023-02-13T07:55:31;99605.69;;;4.59;86.67
15932;BME280;8065;49.520;11.284;2023-02-13T07:57:59;99595.66;;;4.79;86.00
15932;BME280;8065;49.520;11.284;2023-02-13T08:00:25;99601.84;;;4.97;85.46
15932;BME280;8065;49.520;11.284;2023-02-13T08:02:52;99599.00;;;5.10;85.02
15932;BME280;8065;49.520;11.284;2023-02-13T08:05:19;99601.88;;;5.20;84.68
15932;BME280;8065;49.520;11.284;2023-02-13T08:07:46;99603.69;;;4.84;85.02
15932;BME280;8065;49.520;11.284;2023-02-13T08:10:13;99604.84;;;5.12;84.76
15932;BME280;8065;49.520;11.284;2023-02-13T08:12:57;99601.88;;;5.20;84.74
15932;BME280;8065;49.520;11.284;2023-02-13T08:15:24;99608.25;;;5.24;84.61
15932;BME280;8065;49.520;11.284;2023-02-13T08:17:51;99603.13;;;5.17;84.67
15932;BME280;8065;49.520;11.284;2023-02-13T08:20:19;99600.00;;;5.32;84.10
15932;BME280;8065;49.520;11.284;2023-02-13T08:22:46;99598.03;;;5.39;84.84
15932;BME280;8065;49.520;11.284;2023-02-13T08:25:12;99601.72;;;5.26;83.55
15932;BME280;8065;49.520;11.284;2023-02-13T08:27:39;99603.66;;;5.31;84.17
15932;BME280;8065;49.520;11.284;2023-02-13T08:30:06;99599.97;;;5.55;84.20
15932;BME280;8065;49.520;11.284;2023-02-13T08:32:33;99597.19;;;5.74;84.18
15932;BME280;8065;49.520;11.284;2023-02-13T08:35:00;99600.44;;;5.52;83.72
15932;BME280;8065;49.520;11.284;2023-02-13T08:37:27;99608.78;;;5.61;83.67
15932;BME280;8065;49.520;11.284;2023-02-13T08:39:54;99603.38;;;5.68;83.35
15932;BME280;8065;49.520;11.284;2023-02-13T08:42:20;99604.19;;;5.68;84.43
15932;BME280;8065;49.520;11.284;2023-02-13T08:44:47;99600.72;;;5.79;83.78
15932;BME280;8065;49.520;11.284;2023-02-13T08:47:13;99597.84;;;5.81;84.13
15932;BME280;8065;49.520;11.284;2023-02-13T08:49:40;99595.25;;;5.69;83.31
15932;BME280;8065;49.520;11.284;2023-02-13T08:52:07;99598.72;;;5.58;84.05
15932;BME280;8065;49.520;11.284;2023-02-13T08:54:34;99598.53;;;5.88;84.44
15932;BME280;8065;49.520;11.284;2023-02-13T08:57:01;99602.88;;;5.94;83.55
15932;BME280;8065;49.520;11.284;2023-02-13T08:59:27;99598.50;;;6.00;83.09
15932;BME280;8065;49.520;11.284;2023-02-13T09:01:54;99595.59;;;6.30;82.22
15932;BME280;8065;49.520;11.284;2023-02-13T09:04:21;99595.59;;;6.30;81.49
15932;BME280;8065;49.520;11.284;2023-02-13T09:06:48;99591.91;;;6.59;82.08
15932;BME280;8065;49.520;11.284;2023-02-13T09:09:14;99595.00;;;6.56;81.86
15932;BME280;8065;49.520;11.284;2023-02-13T09:11:42;99589.09;;;6.49;81.90
15932;BME280;8065;49.520;11.284;2023-02-13T09:14:09;99596.69;;;6.96;81.34
15932;BME280;8065;49.520;11.284;2023-02-13T09:16:35;99589.41;;;7.41;81.05
15932;BME280;8065;49.520;11.284;2023-02-13T09:19:02;99598.72;;;7.27;80.05
15932;BME280;8065;49.520;11.284;2023-02-13T09:21:29;99597.25;;;7.75;78.97
15932;BME280;8065;49.520;11.284;2023-02-13T09:23:55;99590.56;;;7.94;77.35
15932;BME280;8065;49.520;11.284;2023-02-13T09:26:22;99586.94;;;8.27;77.26
15932;BME280;8065;49.520;11.284;2023-02-13T09:28:49;99588.53;;;8.01;77.22
15932;BME280;8065;49.520;11.284;2023-02-13T09:31:18;99585.16;;;8.33;75.67
15932;BME280;8065;49.520;11.284;2023-02-13T09:33:46;99583.50;;;8.91;75.90
15932;BME280;8065;49.520;11.284;2023-02-13T09:36:15;99579.59;;;9.45;74.44
15932;BME280;8065;49.520;11.284;2023-02-13T09:38:43;99577.84;;;9.71;74.17
15932;BME280;8065;49.520;11.284;2023-02-13T09:41:12;99580.81;;;9.90;73.02
15932;BME280;8065;49.520;11.284;2023-02-13T09:43:43;99586.13;;;9.90;71.43
15932;BME280;8065;49.520;11.284;2023-02-13T09:46:16;99583.59;;;9.48;73.07
15932;BME280;8065;49.520;11.284;2023-02-13T09:48:47;99591.41;;;9.75;72.03
15932;BME280;8065;49.520;11.284;2023-02-13T09:51:18;99587.97;;;9.79;72.59
15932;BME280;8065;49.520;11.284;2023-02-13T09:53:49;99593.38;;;9.37;73.69
15932;BME280;8065;49.520;11.284;2023-02-13T09:56:21;99598.63;;;9.95;73.05
15932;BME280;8065;49.520;11.284;2023-02-13T09:58:57;99596.09;;;9.58;74.36
15932;BME280;8065;49.520;11.284;2023-02-13T10:01:29;99591.78;;;10.14;73.01
15932;BME280;8065;49.520;11.284;2023-02-13T10:04:11;99595.56;;;10.48;72.50
15932;BME280;8065;49.520;11.284;2023-02-13T10:06:43;99588.41;;;10.90;71.23
15932;BME280;8065;49.520;11.284;2023-02-13T10:09:21;99583.59;;;11.12;69.75
15932;BME280;8065;49.520;11.284;2023-02-13T10:12:10;99585.47;;;11.11;69.60
15932;BME280;8065;49.520;11.284;2023-02-13T10:14:44;99587.88;;;11.03;70.08
15932;BME280;8065;49.520;11.284;2023-02-13T10:17:17;99595.25;;;11.31;70.13
15932;BME280;8065;49.520;11.284;2023-02-13T10:19:49;99590.00;;;11.01;70.85
15932;BME280;8065;49.520;11.284;2023-02-13T10:22:25;99585.50;;;10.76;70.99
15932;BME280;8065;49.520;11.284;2023-02-13T10:24:56;99589.97;;;11.11;69.87
15932;BME280;8065;49.520;11.284;2023-02-13T10:27:29;99593.16;;;11.18;70.41
15932;BME280;8065;49.520;11.284;2023-02-13T10:30:00;99589.72;;;11.12;69.91
15932;BME280;8065;49.520;11.284;2023-02-13T10:32:37;99588.38;;;11.10;69.53
15932;BME280;8065;49.520;11.284;2023-02-13T10:35:19;99585.75;;;10.95;70.27
15932;BME280;8065;49.520;11.284;2023-02-13T10:37:47;99585.66;;;11.35;68.71
15932;BME280;8065;49.520;11.284;2023-02-13T10:40:17;99589.13;;;11.31;69.52
15932;BME280;8065;49.520;11.284;2023-02-13T10:42:45;99584.03;;;11.44;69.65
15932;BME280;8065;49.520;11.284;2023-02-13T10:45:24;99584.03;;;11.44;68.16
15932;BME280;8065;49.520;11.284;2023-02-13T10:48:05;99579.63;;;11.04;70.34
15932;BME280;8065;49.520;11.284;2023-02-13T10:50:41;99588.31;;;11.35;69.71
15932;BME280;8065;49.520;11.284;2023-02-13T10:53:16;99579.75;;;11.48;69.25
15932;BME280;8065;49.520;11.284;2023-02-13T10:56:00;99574.44;;;11.48;70.70
15932;BME280;8065;49.520;11.284;2023-02-13T10:58:41;99579.66;;;11.74;70.08
15932;BME280;8065;49.520;11.284;2023-02-13T11:01:17;99573.25;;;11.75;69.40
15932;BME280;8065;49.520;11.284;2023-02-13T11:03:47;99571.75;;;11.54;70.10
15932;BME280;8065;49.520;11.284;2023-02-13T11:06:17;99566.75;;;12.06;69.48
15932;BME280;8065;49.520;11.284;2023-02-13T11:08:45;99565.69;;;12.07;68.69
15932;BME280;8065;49.520;11.284;2023-02-13T11:11:29;99565.16;;;12.05;68.97
15932;BME280;8065;49.520;11.284;2023-02-13T11:14:08;99569.03;;;12.23;68.58
15932;BME280;8065;49.520;11.284;2023-02-13T11:16:40;99560.50;;;12.21;68.24
15932;BME280;8065;49.520;11.284;2023-02-13T11:19:16;99569.22;;;12.32;68.24
15932;BME280;8065;49.520;11.284;2023-02-13T11:21:43;99568.09;;;12.43;67.54
15932;BME280;8065;49.520;11.284;2023-02-13T11:24:17;99562.53;;;12.73;66.72
15932;BME280;8065;49.520;11.284;2023-02-13T11:26:49;99550.53;;;13.00;65.55
15932;BME280;8065;49.520;11.284;2023-02-13T11:29:20;99558.94;;;13.12;65.20
15932;BME280;8065;49.520;11.284;2023-02-13T11:32:01;99560.63;;;13.03;65.06
15932;BME280;8065;49.520;11.284;2023-02-13T11:34:31;99547.50;;;13.35;64.99
15932;BME280;8065;49.520;11.284;2023-02-13T11:37:13;99555.97;;;13.42;64.90
15932;BME280;8065;49.520;11.284;2023-02-13T11:39:41;99558.84;;;13.70;63.27
15932;BME280;8065;49.520;11.284;2023-02-13T11:42:12;99557.25;;;14.06;62.65
15932;BME280;8065;49.520;11.284;2023-02-13T11:44:40;99554.22;;;14.32;62.24
15932;BME280;8065;49.520;11.284;2023-02-13T11:47:07;99564.88;;;13.33;63.17
15932;BME280;8065;49.520;11.284;2023-02-13T11:49:36;99562.41;;;14.03;61.95
15932;BME280;8065;49.520;11.284;2023-02-13T11:52:06;99548.94;;;14.27;60.75
15932;BME280;8065;49.520;11.284;2023-02-13T11:54:39;99548.59;;;14.52;61.63
15932;BME280;8065;49.520;11.284;2023-02-13T11:57:18;99537.00;;;15.03;61.24
15932;BME280;8065;49.520;11.284;2023-02-13T11:59:46;99543.34;;;15.07;59.68
15932;BME280;8065;49.520;11.284;2023-02-13T12:02:17;99544.38;;;14.65;58.78
15932;BME280;8065;49.520;11.284;2023-02-13T12:04:46;99534.41;;;14.33;59.09
15932;BME280;8065;49.520;11.284;2023-02-13T12:07:16;99537.06;;;14.70;59.28
15932;BME280;8065;49.520;11.284;2023-02-13T12:09:45;99539.34;;;14.26;58.87
15932;BME280;8065;49.520;11.284;2023-02-13T12:12:17;99536.16;;;14.24;59.46
15932;BME280;8065;49.520;11.284;2023-02-13T12:14:45;99524.16;;;14.40;59.81
15932;BME280;8065;49.520;11.284;2023-02-13T12:17:15;99522.28;;;14.87;59.52
15932;BME280;8065;49.520;11.284;2023-02-13T12:19:45;99525.88;;;14.96;59.82
15932;BME280;8065;49.520;11.284;2023-02-13T12:22:28;99514.34;;;14.82;58.74
15932;BME280;8065;49.520;11.284;2023-02-13T12:25:13;99515.28;;;13.88;59.41
15932;BME280;8065;49.520;11.284;2023-02-13T12:27:53;99507.22;;;14.63;58.66
15932;BME280;8065;49.520;11.284;2023-02-13T12:30:40;99498.31;;;14.95;57.82
15932;BME280;8065;49.520;11.284;2023-02-13T12:33:20;99489.75;;;15.62;57.31
15932;BME280;8065;49.520;11.284;2023-02-13T12:35:56;99493.00;;;16.09;55.57
15932;BME280;8065;49.520;11.284;2023-02-13T12:38:43;99487.13;;;15.84;55.52
15932;BME280;8065;49.520;11.284;2023-02-13T12:41:16;99484.03;;;15.27;56.85
15932;BME280;8065;49.520;11.284;2023-02-13T12:44:23;99488.38;;;14.82;57.22
15932;BME280;8065;49.520;11.284;2023-02-13T12:47:00;99488.00;;;15.57;56.01
15932;BME280;8065;49.520;11.284;2023-02-13T12:49:48;99475.56;;;16.20;54.44
15932;BME280;8065;49.520;11.284;2023-02-13T12:52:35;99469.97;;;16.08;54.53
15932;BME280;8065;49.520;11.284;2023-02-13T12:55:18;99480.69;;;16.08;54.29
15932;BME280;8065;49.520;11.284;2023-02-13T12:57:57;99471.56;;;16.09;54.63
15932;BME280;8065;49.520;11.284;2023-02-13T13:00:35;99467.38;;;15.80;54.42
15932;BME280;8065;49.520;11.284;2023-02-13T13:03:36;99470.75;;;15.08;56.41
15932;BME280;8065;49.520;11.284;2023-02-13T13:06:17;99470.09;;;16.02;55.13
15932;BME280;8065;49.520;11.284;2023-02-13T13:09:09;99472.53;;;16.13;54.37
15932;BME280;8065;49.520;11.284;2023-02-13T13:11:51;99463.94;;;16.55;53.75
15932;BME280;8065;49.520;11.284;2023-02-13T13:14:26;99461.69;;;16.71;53.52
15932;BME280;8065;49.520;11.284;2023-02-13T13:17:05;99464.28;;;15.87;54.63
15932;BME280;8065;49.520;11.284;2023-02-13T13:19:37;99463.31;;;16.58;54.23
15932;BME280;8065;49.520;11.284;2023-02-13T13:22:12;99460.78;;;16.84;54.30
15932;BME280;8065;49.520;11.284;2023-02-13T13:24:49;99456.69;;;16.87;53.42
15932;BME280;8065;49.520;11.284;2023-02-13T13:27:19;99460.50;;;16.63;54.12
15932;BME280;8065;49.520;11.284;2023-02-13T13:29:53;99462.34;;;17.16;54.27
15932;BME280;8065;49.520;11.284;2023-02-13T13:32:21;99464.47;;;16.35;53.86